Time;durP1;ratioP1;P1;durP2;ratioP2;P2;SDS_P1;SDS_P2;PMS_P1;PMS_P2;Temp;Humidity;BMP_temperature;BMP_pressure;BME280_temperature;BME280_humidity;BME280_pressure;Samples;Min_cycle;Max_cycle;Signal;HPM_P1;HPM_P2
2023/03/05 00:01:31;;;;;;;28.08;16.70;;;16.80;44.90;;;;;;4943294;29;20209;-82
2023/03/05 00:03:58;;;;;;;26.70;16.02;;;16.80;44.70;;;;;;4941386;29;20246;-85
2023/03/05 00:06:28;;;;;;;26.00;16.20;;;16.70;44.40;;;;;;4925513;29;20215;-83
2023/03/05 00:08:57;;;;;;;25.15;16.30;;;16.80;44.50;;;;;;4941096;29;20205;-82
2023/03/05 00:11:26;;;;;;;26.55;16.42;;;16.70;44.30;;;;;;4940708;29;20297;-83
2023/03/05 00:13:53;;;;;;;23.30;15.95;;;16.70;44.30;;;;;;4940644;29;20238;-83
2023/03/05 00:16:21;;;;;;;24.17;15.90;;;16.60;44.90;;;;;;4941043;29;20232;-81
2023/03/05 00:18:49;;;;;;;26.15;15.30;;;16.60;44.20;;;;;;4940198;29;20202;-81
2023/03/05 00:21:21;;;;;;;22.45;14.32;;;16.60;44.20;;;;;;4940300;29;20253;-82
2023/03/05 00:23:49;;;;;;;22.40;14.88;;;16.60;44.30;;;;;;4940573;29;20223;-82
2023/03/05 00:26:16;;;;;;;22.65;15.45;;;16.50;44.20;;;;;;4941245;29;20631;-81
2023/03/05 00:28:46;;;;;;;21.13;14.90;;;16.50;44.20;;;;;;4940826;29;20199;-82
2023/03/05 00:31:13;;;;;;;22.15;14.88;;;16.50;44.20;;;;;;4940036;29;20207;-82
2023/03/05 00:33:40;;;;;;;23.13;14.30;;;16.50;44.20;;;;;;4940463;29;20646;-82
2023/03/05 00:36:10;;;;;;;18.55;13.38;;;16.40;43.90;;;;;;4940080;28;20645;-82
2023/03/05 00:38:37;;;;;;;21.77;14.23;;;16.40;44.10;;;;;;4940009;29;20198;-81
2023/03/05 00:41:04;;;;;;;21.65;14.20;;;16.40;44.10;;;;;;4939726;29;20214;-81
2023/03/05 00:43:31;;;;;;;22.48;14.70;;;16.30;44.10;;;;;;4939571;29;20222;-81
2023/03/05 00:45:58;;;;;;;19.80;13.65;;;16.40;44.20;;;;;;4939591;28;20552;-81
2023/03/05 00:48:26;;;;;;;24.42;13.98;;;16.30;44.10;;;;;;4939736;29;20199;-81
2023/03/05 00:50:53;;;;;;;19.85;13.98;;;16.30;44.00;;;;;;4939697;29;20557;-81
2023/03/05 00:53:22;;;;;;;21.83;14.02;;;16.30;44.10;;;;;;4940136;29;20220;-81
2023/03/05 00:55:51;;;;;;;20.27;13.35;;;16.30;44.10;;;;;;4939612;28;20194;-81
2023/03/05 00:58:18;;;;;;;18.98;12.75;;;16.30;44.10;;;;;;4924857;29;20213;-81
2023/03/05 01:00:45;;;;;;;19.90;13.02;;;16.20;43.90;;;;;;4939650;29;20210;-81
2023/03/05 01:03:12;;;;;;;20.48;14.00;;;16.20;44.60;;;;;;4940407;29;20221;-81
2023/03/05 01:05:39;;;;;;;17.40;12.38;;;16.20;43.90;;;;;;4939755;29;20203;-81
2023/03/05 01:08:06;;;;;;;19.48;12.35;;;16.20;44.10;;;;;;4939230;29;20229;-81
2023/03/05 01:10:35;;;;;;;19.42;12.77;;;16.20;43.90;;;;;;4923612;29;20207;-81
2023/03/05 01:13:02;;;;;;;15.95;11.82;;;16.20;44.00;;;;;;4939541;29;20195;-81
2023/03/05 01:15:29;;;;;;;16.52;12.60;;;16.20;44.00;;;;;;4939847;29;20289;-81
2023/03/05 01:17:56;;;;;;;19.27;12.48;;;16.10;43.90;;;;;;4941071;29;20227;-81
2023/03/05 01:20:23;;;;;;;16.55;11.80;;;16.10;43.90;;;;;;4924870;29;20208;-81
2023/03/05 01:22:50;;;;;;;15.27;11.90;;;16.10;44.00;;;;;;4939967;29;20206;-81
2023/03/05 01:25:18;;;;;;;17.25;12.50;;;16.10;44.00;;;;;;4939456;29;20590;-81
2023/03/05 01:27:46;;;;;;;17.83;12.50;;;16.10;43.90;;;;;;4939686;29;20226;-81
2023/03/05 01:30:14;;;;;;;16.85;12.10;;;16.10;44.00;;;;;;4923620;29;20209;-81
2023/03/05 01:32:41;;;;;;;18.42;12.20;;;16.10;44.00;;;;;;4939660;29;20209;-81
2023/03/05 01:35:21;;;;;;;16.90;11.98;;;16.00;44.00;;;;;;4939458;29;20289;-81
2023/03/05 01:37:48;;;;;;;15.85;12.23;;;16.00;43.90;;;;;;4940119;29;20249;-81
2023/03/05 01:40:17;;;;;;;15.95;11.45;;;16.10;43.90;;;;;;4939228;29;20289;-81
2023/03/05 01:42:47;;;;;;;17.77;12.25;;;16.00;43.90;;;;;;4939841;29;20662;-81
2023/03/05 01:45:15;;;;;;;15.55;11.90;;;16.00;43.90;;;;;;4943036;29;20768;-81
2023/03/05 01:47:42;;;;;;;16.30;11.73;;;16.00;43.90;;;;;;4943301;29;20218;-81
2023/03/05 01:50:10;;;;;;;16.52;11.55;;;15.90;43.90;;;;;;4927693;29;20194;-81
2023/03/05 01:52:38;;;;;;;15.25;11.43;;;16.00;44.00;;;;;;4946148;29;20671;-82
2023/03/05 01:55:08;;;;;;;15.63;11.23;;;16.00;43.90;;;;;;4946219;29;20210;-82
2023/03/05 01:57:38;;;;;;;16.27;11.70;;;16.00;43.90;;;;;;4954406;29;20274;-82
2023/03/05 02:00:09;;;;;;;14.57;11.32;;;16.00;44.00;;;;;;4966292;28;20187;-81
2023/03/05 02:02:40;;;;;;;15.52;11.27;;;16.00;43.90;;;;;;4982562;29;20194;-81
2023/03/05 02:05:08;;;;;;;15.48;11.73;;;15.90;43.80;;;;;;4943714;29;20249;-81
2023/03/05 02:07:38;;;;;;;15.32;11.15;;;15.90;43.80;;;;;;4948548;29;20225;-81
2023/03/05 02:10:15;;;;;;;16.30;11.68;;;15.90;43.80;;;;;;4945405;29;20210;-81
2023/03/05 02:12:43;;;;;;;15.32;11.38;;;15.90;43.80;;;;;;4946275;29;20273;-81
2023/03/05 02:15:11;;;;;;;15.27;11.27;;;15.90;43.90;;;;;;4953949;29;20666;-81
2023/03/05 02:17:38;;;;;;;17.10;11.40;;;15.90;43.90;;;;;;4961931;29;20222;-81
2023/03/05 02:20:08;;;;;;;15.05;11.25;;;15.90;43.90;;;;;;4960693;29;20206;-81
2023/03/05 02:22:36;;;;;;;15.10;11.07;;;15.90;43.90;;;;;;4951541;29;20253;-81
2023/03/05 02:25:12;;;;;;;14.68;10.98;;;15.80;43.90;;;;;;4947304;29;20222;-81
2023/03/05 02:27:39;;;;;;;14.25;11.13;;;15.80;43.80;;;;;;4946427;29;20222;-81
2023/03/05 02:30:08;;;;;;;13.35;10.82;;;15.80;43.90;;;;;;4946402;29;20213;-81
2023/03/05 02:32:35;;;;;;;15.93;11.05;;;15.80;43.90;;;;;;4944953;29;20214;-81
2023/03/05 02:35:03;;;;;;;16.73;11.48;;;15.80;43.90;;;;;;4943515;29;20202;-81
2023/03/05 02:37:30;;;;;;;16.00;11.50;;;15.80;43.90;;;;;;4942872;29;20242;-81
2023/03/05 02:39:58;;;;;;;13.15;10.10;;;15.80;44.00;;;;;;4942418;29;20209;-81
2023/03/05 02:42:26;;;;;;;15.43;10.55;;;15.80;44.00;;;;;;4942328;29;20257;-81
2023/03/05 02:44:53;;;;;;;14.68;10.82;;;15.80;43.90;;;;;;4941970;29;20211;-81
2023/03/05 02:47:20;;;;;;;13.98;10.77;;;15.80;44.00;;;;;;4941646;29;20302;-81
2023/03/05 02:49:51;;;;;;;16.35;10.77;;;15.70;43.90;;;;;;4943816;29;20234;-81
2023/03/05 02:52:18;;;;;;;15.32;10.95;;;15.70;43.90;;;;;;4942577;29;20210;-81
2023/03/05 02:54:45;;;;;;;15.50;11.30;;;15.70;43.90;;;;;;4941744;29;20290;-81
2023/03/05 02:57:13;;;;;;;14.18;9.93;;;15.70;44.00;;;;;;4942688;29;20214;-81
2023/03/05 02:59:41;;;;;;;16.45;11.27;;;15.70;43.90;;;;;;4926655;29;20213;-81
2023/03/05 03:02:08;;;;;;;14.48;10.88;;;15.70;44.00;;;;;;4943072;29;20206;-81
2023/03/05 03:04:35;;;;;;;14.88;10.98;;;15.70;43.90;;;;;;4942294;29;20223;-81
2023/03/05 03:07:02;;;;;;;15.15;10.43;;;15.70;44.00;;;;;;4926156;29;20219;-81
2023/03/05 03:09:29;;;;;;;13.25;10.45;;;15.70;44.30;;;;;;4941818;29;20584;-81
2023/03/05 03:11:56;;;;;;;13.57;10.15;;;15.60;43.90;;;;;;4941650;29;20565;-81
2023/03/05 03:14:25;;;;;;;14.10;10.80;;;15.60;44.00;;;;;;4943341;29;20203;-81
2023/03/05 03:16:52;;;;;;;12.43;9.43;;;15.60;44.00;;;;;;4941654;29;20241;-81
2023/03/05 03:19:19;;;;;;;14.02;10.57;;;15.60;43.90;;;;;;4958914;29;20191;-81
2023/03/05 03:21:48;;;;;;;12.60;10.02;;;15.60;43.90;;;;;;4942071;29;20211;-81
2023/03/05 03:24:16;;;;;;;14.85;10.73;;;15.60;43.90;;;;;;4942880;28;20223;-81
2023/03/05 03:26:43;;;;;;;13.65;9.55;;;15.60;44.00;;;;;;4942697;29;20266;-81
2023/03/05 03:29:10;;;;;;;12.63;10.10;;;15.60;44.00;;;;;;4941302;29;20199;-81
2023/03/05 03:31:40;;;;;;;13.02;10.10;;;15.60;44.10;;;;;;4926151;29;20662;-81
2023/03/05 03:34:07;;;;;;;15.25;10.73;;;15.60;44.00;;;;;;4941298;29;20673;-81
2023/03/05 03:36:34;;;;;;;14.20;10.35;;;15.60;44.00;;;;;;4925284;29;20219;-81
2023/03/05 03:39:02;;;;;;;16.73;10.88;;;15.60;44.60;;;;;;4926040;29;20202;-81
2023/03/05 03:41:29;;;;;;;12.70;10.23;;;15.60;44.00;;;;;;4926243;29;20203;-81
2023/03/05 03:43:56;;;;;;;14.02;10.52;;;15.60;44.00;;;;;;4940854;29;20230;-81
2023/03/05 03:46:23;;;;;;;12.10;10.30;;;15.50;44.00;;;;;;4958366;28;20254;-81
2023/03/05 03:48:52;;;;;;;12.40;10.05;;;15.50;44.00;;;;;;4941648;29;20210;-81
2023/03/05 03:51:19;;;;;;;13.98;10.48;;;15.50;44.00;;;;;;4940465;29;20199;-81
2023/03/05 03:53:46;;;;;;;13.35;10.20;;;15.50;44.00;;;;;;4940630;29;20246;-81
2023/03/05 03:56:13;;;;;;;13.35;9.90;;;15.50;44.10;;;;;;4940050;29;20223;-81
2023/03/05 03:58:40;;;;;;;12.15;9.50;;;15.50;44.00;;;;;;4940153;29;20207;-81
2023/03/05 04:01:07;;;;;;;11.80;9.80;;;15.50;44.00;;;;;;4940024;29;20202;-81
2023/03/05 04:03:34;;;;;;;12.45;10.45;;;15.50;44.00;;;;;;4940157;29;20646;-81
2023/03/05 04:06:03;;;;;;;12.93;10.40;;;15.50;44.10;;;;;;4939565;28;20227;-81
2023/03/05 04:08:31;;;;;;;12.85;9.75;;;15.50;44.00;;;;;;4940925;29;20234;-81
2023/03/05 04:10:57;;;;;;;11.55;10.02;;;15.50;44.00;;;;;;4957548;29;20202;-81
2023/03/05 04:13:25;;;;;;;11.25;9.77;;;15.50;44.00;;;;;;4940135;29;20207;-81
2023/03/05 04:15:52;;;;;;;13.43;10.25;;;15.40;44.10;;;;;;4939831;28;20658;-81
2023/03/05 04:18:19;;;;;;;12.45;9.93;;;15.40;44.40;;;;;;4924050;29;20569;-81
2023/03/05 04:20:46;;;;;;;15.27;10.60;;;15.40;44.40;;;;;;4939982;29;20191;-81
2023/03/05 04:23:15;;;;;;;13.52;10.18;;;15.40;44.40;;;;;;4957047;29;20538;-81
2023/03/05 04:25:42;;;;;;;12.85;10.23;;;15.40;44.20;;;;;;4939558;29;20226;-81
2023/03/05 04:28:11;;;;;;;13.18;10.35;;;15.40;44.20;;;;;;4956822;28;20210;-81
2023/03/05 04:30:38;;;;;;;16.20;11.23;;;15.40;44.20;;;;;;4939768;29;20550;-81
2023/03/05 04:33:05;;;;;;;14.10;10.10;;;15.50;44.20;;;;;;4939688;29;20287;-81
2023/03/05 04:35:32;;;;;;;15.50;11.13;;;15.50;44.10;;;;;;4939596;29;20194;-81
2023/03/05 04:38:00;;;;;;;13.93;10.18;;;15.60;44.30;;;;;;4940148;29;20218;-81
2023/03/05 04:40:48;;;;;;;12.73;9.95;;;15.60;45.00;;;;;;4956761;29;20552;-79
2023/03/05 04:43:16;;;;;;;13.25;10.10;;;15.60;44.30;;;;;;4940205;29;20270;-79
2023/03/05 04:45:43;;;;;;;13.60;10.35;;;15.70;44.30;;;;;;4940845;29;20277;-80
2023/03/05 04:48:11;;;;;;;13.68;10.32;;;15.70;44.10;;;;;;4945413;29;20243;-79
2023/03/05 04:50:38;;;;;;;11.57;9.75;;;15.70;43.90;;;;;;4944155;29;20203;-79
2023/03/05 04:53:06;;;;;;;11.50;10.00;;;15.70;44.40;;;;;;4943081;29;20198;-79
2023/03/05 04:55:33;;;;;;;13.75;10.25;;;15.80;43.80;;;;;;4942303;29;20199;-79
2023/03/05 04:58:01;;;;;;;12.45;9.85;;;15.70;43.50;;;;;;4941466;29;20281;-79
2023/03/05 05:00:28;;;;;;;13.57;10.38;;;15.80;43.60;;;;;;4941379;29;20206;-79
2023/03/05 05:02:55;;;;;;;15.93;10.98;;;15.70;43.50;;;;;;4941073;29;20233;-79
2023/03/05 05:05:23;;;;;;;13.15;10.18;;;15.70;43.50;;;;;;4940925;29;20219;-79
2023/03/05 05:07:53;;;;;;;12.48;9.30;;;15.70;44.20;;;;;;4939888;29;20271;-79
2023/03/05 05:10:21;;;;;;;12.52;9.55;;;15.70;43.60;;;;;;4940381;29;20203;-79
2023/03/05 05:12:48;;;;;;;12.80;10.23;;;15.70;43.60;;;;;;4940189;29;20203;-81
2023/03/05 05:15:16;;;;;;;12.30;10.15;;;15.70;43.70;;;;;;4939583;29;20199;-80
2023/03/05 05:17:44;;;;;;;12.52;10.07;;;15.70;43.70;;;;;;4956178;28;20229;-80
2023/03/05 05:20:13;;;;;;;11.55;9.90;;;15.70;43.70;;;;;;4939558;29;20199;-80
2023/03/05 05:22:40;;;;;;;13.07;10.27;;;15.70;43.80;;;;;;4939641;29;20219;-80
2023/03/05 05:25:09;;;;;;;12.38;9.18;;;15.70;43.50;;;;;;4939115;29;20231;-80
2023/03/05 05:27:36;;;;;;;12.65;9.20;;;15.70;43.40;;;;;;4956705;28;20705;-80
2023/03/05 05:30:04;;;;;;;13.25;10.23;;;15.80;43.50;;;;;;4940004;29;20207;-80
2023/03/05 05:32:32;;;;;;;10.52;8.93;;;15.80;43.30;;;;;;4939852;29;20683;-80
2023/03/05 05:34:59;;;;;;;11.18;9.55;;;15.80;43.20;;;;;;4939632;29;20195;-80
2023/03/05 05:37:27;;;;;;;12.73;10.05;;;15.80;43.10;;;;;;4940262;29;20761;-81
2023/03/05 05:39:54;;;;;;;11.68;9.25;;;15.80;43.00;;;;;;4940273;29;20666;-80
2023/03/05 05:42:22;;;;;;;10.80;9.13;;;15.80;43.00;;;;;;4940835;29;20199;-80
2023/03/05 05:44:49;;;;;;;11.30;8.98;;;15.90;43.00;;;;;;4939593;29;20246;-80
2023/03/05 05:47:18;;;;;;;10.75;8.77;;;15.90;43.00;;;;;;4939259;29;20226;-80
2023/03/05 05:49:46;;;;;;;11.40;9.15;;;15.90;43.60;;;;;;4939483;29;20202;-80
2023/03/05 05:52:14;;;;;;;12.15;9.27;;;15.90;42.90;;;;;;4923925;29;20271;-80
2023/03/05 05:54:42;;;;;;;11.43;9.38;;;15.90;42.70;;;;;;4940230;29;20202;-80
2023/03/05 05:57:09;;;;;;;11.48;8.95;;;15.90;42.80;;;;;;4938960;29;20222;-80
2023/03/05 05:59:37;;;;;;;11.43;9.25;;;15.90;42.80;;;;;;4939331;29;20207;-81
2023/03/05 06:02:04;;;;;;;10.27;8.90;;;15.90;42.80;;;;;;4925148;29;20210;-80
2023/03/05 06:04:32;;;;;;;10.95;8.85;;;15.90;43.00;;;;;;4941957;29;20203;-80
2023/03/05 06:07:00;;;;;;;10.75;9.07;;;15.90;42.50;;;;;;4942750;29;20215;-80
2023/03/05 06:09:27;;;;;;;10.57;9.40;;;15.90;43.40;;;;;;4942735;29;20214;-80
2023/03/05 06:11:55;;;;;;;11.45;9.23;;;15.90;42.80;;;;;;4942996;29;20293;-80
2023/03/05 06:14:22;;;;;;;10.25;9.15;;;15.90;42.90;;;;;;4942937;29;20652;-80
2023/03/05 06:16:49;;;;;;;11.20;8.77;;;15.90;42.60;;;;;;4942389;29;20226;-80
2023/03/05 06:19:16;;;;;;;11.57;9.48;;;15.90;42.70;;;;;;4943988;29;20207;-80
2023/03/05 06:21:44;;;;;;;10.90;8.82;;;16.00;42.60;;;;;;4945601;29;20206;-80
2023/03/05 06:24:12;;;;;;;11.35;8.70;;;16.00;42.70;;;;;;4946471;29;20229;-81
2023/03/05 06:26:39;;;;;;;10.40;8.40;;;16.00;42.70;;;;;;4943353;29;20230;-80
2023/03/05 06:29:06;;;;;;;11.75;8.95;;;15.90;42.90;;;;;;4942618;29;20241;-81
2023/03/05 06:31:33;;;;;;;9.70;8.32;;;15.90;42.60;;;;;;4944712;29;20199;-81
2023/03/05 06:34:01;;;;;;;10.75;9.02;;;16.00;42.60;;;;;;4945304;29;20202;-81
2023/03/05 06:36:28;;;;;;;11.23;8.50;;;16.00;42.60;;;;;;4945055;29;20239;-81
2023/03/05 06:38:55;;;;;;;10.70;7.88;;;16.00;42.60;;;;;;4944475;29;20198;-81
2023/03/05 06:41:27;;;;;;;11.18;8.73;;;16.00;42.70;;;;;;4929943;29;20658;-80
2023/03/05 06:43:54;;;;;;;8.57;7.50;;;16.00;42.70;;;;;;4930619;29;20209;-80
2023/03/05 06:46:22;;;;;;;10.20;8.23;;;16.00;42.60;;;;;;4980242;23;20229;-83
2023/03/05 06:48:49;;;;;;;10.48;8.25;;;16.00;42.60;;;;;;4961778;28;20609;-83
2023/03/05 06:51:17;;;;;;;10.77;8.63;;;16.00;42.60;;;;;;4979394;28;20202;-83
2023/03/05 06:53:44;;;;;;;10.02;8.48;;;16.00;42.60;;;;;;4961968;28;20233;-83
2023/03/05 06:56:12;;;;;;;10.07;8.18;;;16.00;42.60;;;;;;4961956;28;20289;-83
2023/03/05 06:58:41;;;;;;;10.45;8.63;;;16.00;42.60;;;;;;4962165;28;20604;-83
2023/03/05 07:01:08;;;;;;;9.95;8.40;;;16.00;42.60;;;;;;4962021;28;20198;-83
2023/03/05 07:03:36;;;;;;;8.38;6.72;;;16.10;42.70;;;;;;4946523;28;20201;-83
2023/03/05 07:06:05;;;;;;;9.77;8.27;;;16.00;42.60;;;;;;4963223;28;20214;-83
2023/03/05 07:08:32;;;;;;;10.95;8.43;;;16.10;42.70;;;;;;4961809;28;20233;-84
2023/03/05 07:10:59;;;;;;;9.85;8.02;;;16.10;42.60;;;;;;4962515;28;20209;-83
2023/03/05 07:13:26;;;;;;;11.07;8.75;;;16.10;42.70;;;;;;4962658;28;20195;-82
2023/03/05 07:15:55;;;;;;;9.45;8.00;;;16.10;42.70;;;;;;4945586;28;20291;-82
2023/03/05 07:18:23;;;;;;;10.02;8.35;;;16.10;42.60;;;;;;4961217;28;20248;-83
2023/03/05 07:20:50;;;;;;;9.50;8.18;;;16.10;42.60;;;;;;4962812;28;20700;-83
2023/03/05 07:23:17;;;;;;;9.15;7.65;;;16.10;42.50;;;;;;4962654;28;20190;-83
2023/03/05 07:25:44;;;;;;;10.63;7.80;;;16.20;42.70;;;;;;4962167;28;20210;-83
2023/03/05 07:28:11;;;;;;;9.13;7.70;;;16.20;42.60;;;;;;4962295;28;20218;-83
2023/03/05 07:30:39;;;;;;;9.65;7.78;;;16.20;42.40;;;;;;4962547;28;20268;-83
2023/03/05 07:33:07;;;;;;;9.35;7.80;;;16.20;42.50;;;;;;4962213;28;20208;-83
2023/03/05 07:35:34;;;;;;;11.15;8.70;;;16.20;42.50;;;;;;4962044;28;20204;-83
2023/03/05 07:38:01;;;;;;;10.88;8.85;;;16.20;42.10;;;;;;4961628;28;20218;-83
2023/03/05 07:40:28;;;;;;;11.07;8.68;;;16.30;42.80;;;;;;4961105;28;20669;-83
2023/03/05 07:42:56;;;;;;;10.73;8.45;;;16.30;42.30;;;;;;4961205;28;20198;-83
2023/03/05 07:45:30;;;;;;;10.50;8.25;;;16.30;42.20;;;;;;4961132;28;20222;-83
2023/03/05 07:47:58;;;;;;;9.77;8.05;;;16.30;42.30;;;;;;4961081;28;20260;-83
2023/03/05 07:50:26;;;;;;;8.13;7.07;;;16.30;42.30;;;;;;4961331;28;20204;-82
2023/03/05 07:52:54;;;;;;;9.38;7.28;;;16.30;42.40;;;;;;4960934;28;20190;-83
2023/03/05 07:55:21;;;;;;;12.70;7.72;;;16.40;42.30;;;;;;4961031;28;20641;-83
2023/03/05 07:57:48;;;;;;;9.45;8.30;;;16.40;42.10;;;;;;4960522;28;20222;-83
2023/03/05 08:00:16;;;;;;;10.80;8.18;;;16.40;42.10;;;;;;4960798;28;20229;-83
2023/03/05 08:02:44;;;;;;;9.48;8.25;;;16.40;42.10;;;;;;4945031;28;20202;-83
2023/03/05 08:05:12;;;;;;;10.32;8.52;;;16.40;42.00;;;;;;4944725;28;20198;-83
2023/03/05 08:07:40;;;;;;;11.05;8.80;;;16.40;42.00;;;;;;4960435;28;20229;-83
2023/03/05 08:10:09;;;;;;;11.15;9.30;;;16.40;41.80;;;;;;4960464;28;20688;-83
2023/03/05 08:12:39;;;;;;;9.55;8.10;;;16.40;41.80;;;;;;4960759;28;20202;-83
2023/03/05 08:15:07;;;;;;;12.20;8.90;;;16.40;41.70;;;;;;4961669;28;20198;-83
2023/03/05 08:17:34;;;;;;;11.45;9.82;;;16.50;41.80;;;;;;4945756;28;20560;-84
2023/03/05 08:20:04;;;;;;;11.48;8.98;;;16.50;41.80;;;;;;4960653;28;20554;-83
2023/03/05 08:22:33;;;;;;;11.70;9.38;;;16.40;41.70;;;;;;4961177;28;20547;-83
2023/03/05 08:25:02;;;;;;;10.50;8.57;;;16.50;41.80;;;;;;4960768;28;20206;-83
2023/03/05 08:27:30;;;;;;;11.63;8.57;;;16.50;41.80;;;;;;4960078;28;20412;-83
2023/03/05 08:29:57;;;;;;;10.80;8.43;;;16.50;41.60;;;;;;4960224;28;20297;-83
2023/03/05 08:32:24;;;;;;;11.05;8.70;;;16.60;41.70;;;;;;4978093;28;20273;-83
2023/03/05 08:34:56;;;;;;;11.35;9.38;;;16.50;41.50;;;;;;4960242;28;20201;-83
2023/03/05 08:37:23;;;;;;;10.32;8.88;;;16.60;41.50;;;;;;4959864;28;20723;-82
2023/03/05 08:39:50;;;;;;;11.73;9.52;;;16.50;41.40;;;;;;4961800;28;20256;-83
2023/03/05 08:42:20;;;;;;;9.77;8.57;;;16.50;41.20;;;;;;4960187;28;20195;-83
2023/03/05 08:44:48;;;;;;;11.60;9.20;;;16.60;41.30;;;;;;4960187;28;20780;-83
2023/03/05 08:47:15;;;;;;;12.30;9.38;;;16.60;41.20;;;;;;4960122;28;20281;-83
2023/03/05 08:49:46;;;;;;;11.18;8.68;;;16.70;41.30;;;;;;4960345;28;20668;-82
2023/03/05 08:52:14;;;;;;;10.07;8.57;;;16.70;41.30;;;;;;4960155;28;20225;-83
2023/03/05 08:54:41;;;;;;;12.45;9.98;;;16.70;41.20;;;;;;4959636;28;20210;-82
2023/03/05 08:57:08;;;;;;;10.63;8.35;;;16.70;41.10;;;;;;4959896;28;20214;-82
2023/03/05 08:59:37;;;;;;;10.57;8.35;;;16.80;41.00;;;;;;4959978;28;20258;-83
2023/03/05 09:02:04;;;;;;;9.82;8.40;;;16.80;41.00;;;;;;4959623;28;20734;-84
2023/03/05 09:04:31;;;;;;;12.25;8.73;;;16.80;40.80;;;;;;4959643;28;20198;-83
2023/03/05 09:06:59;;;;;;;10.57;8.52;;;16.80;40.60;;;;;;4959251;28;20226;-83
2023/03/05 09:09:28;;;;;;;10.75;8.10;;;16.80;40.60;;;;;;4959134;28;20194;-83
2023/03/05 09:11:56;;;;;;;9.73;7.72;;;16.90;40.60;;;;;;4976814;28;20194;-83
2023/03/05 09:14:24;;;;;;;10.43;7.93;;;16.90;40.60;;;;;;4962355;28;20616;-83
2023/03/05 09:16:52;;;;;;;11.30;8.45;;;17.00;40.60;;;;;;4965113;28;20248;-82
2023/03/05 09:19:19;;;;;;;9.48;7.95;;;17.00;40.40;;;;;;4964164;28;20565;-83
2023/03/05 09:21:46;;;;;;;9.48;7.53;;;17.00;40.30;;;;;;4963705;28;20209;-82
2023/03/05 09:24:13;;;;;;;10.05;7.57;;;17.10;40.30;;;;;;4948104;28;20209;-83
2023/03/05 09:26:41;;;;;;;9.80;7.50;;;17.10;40.00;;;;;;4962688;28;20636;-81
2023/03/05 09:29:08;;;;;;;9.55;7.32;;;17.10;40.10;;;;;;4964409;28;20201;-80
2023/03/05 09:31:35;;;;;;;9.73;7.93;;;17.20;39.90;;;;;;4963552;28;20202;-82
2023/03/05 09:34:06;;;;;;;10.32;8.43;;;17.10;39.90;;;;;;4965026;28;20225;-81
2023/03/05 09:36:33;;;;;;;9.50;7.53;;;17.20;40.10;;;;;;4948313;28;20242;-82
2023/03/05 09:39:05;;;;;;;9.88;7.57;;;17.20;40.10;;;;;;4961689;28;20212;-82
2023/03/05 09:41:36;;;;;;;9.77;8.15;;;17.10;40.40;;;;;;4943790;28;20190;-82
2023/03/05 09:44:10;;;;;;;9.30;7.85;;;17.10;40.40;;;;;;4960016;28;20198;-82
2023/03/05 09:46:44;;;;;;;9.80;8.18;;;17.10;40.40;;;;;;4960363;28;20581;-82
2023/03/05 09:49:16;;;;;;;9.70;7.57;;;17.10;40.30;;;;;;4961851;28;20205;-82
2023/03/05 09:51:45;;;;;;;9.40;7.47;;;17.10;40.30;;;;;;4944856;28;20212;-82
2023/03/05 09:54:13;;;;;;;10.95;7.40;;;17.10;40.20;;;;;;4960851;28;20202;-82
2023/03/05 09:56:41;;;;;;;8.82;7.18;;;17.10;40.20;;;;;;4961506;28;20226;-82
2023/03/05 09:59:17;;;;;;;7.93;7.07;;;17.20;40.10;;;;;;4961914;28;20206;-82
2023/03/05 10:01:45;;;;;;;8.43;7.30;;;17.20;40.20;;;;;;4960234;28;20568;-82
2023/03/05 10:04:15;;;;;;;10.40;7.40;;;17.20;40.00;;;;;;4962094;28;20257;-82
2023/03/05 10:06:47;;;;;;;9.60;7.32;;;17.20;39.90;;;;;;4978521;28;20237;-82
2023/03/05 10:09:17;;;;;;;9.65;7.35;;;17.20;39.90;;;;;;4985988;28;20187;-83
2023/03/05 10:11:47;;;;;;;9.63;7.40;;;17.20;39.70;;;;;;4969957;28;20617;-83
2023/03/05 10:14:15;;;;;;;10.32;7.47;;;17.20;39.60;;;;;;4973806;28;20225;-83
2023/03/05 10:17:19;;;;;;;8.40;7.18;;;17.30;39.70;;;;;;4947244;28;20313;-83
2023/03/05 10:20:02;;;;;;;8.57;7.22;;;17.30;39.60;;;;;;4962742;28;20194;-83
2023/03/05 10:22:31;;;;;;;8.85;7.40;;;17.30;39.50;;;;;;4963472;28;20190;-83
2023/03/05 10:25:04;;;;;;;9.93;7.43;;;17.30;39.50;;;;;;4962566;28;20198;-83
2023/03/05 10:27:37;;;;;;;9.32;7.32;;;17.30;39.50;;;;;;4963672;28;20234;-83
2023/03/05 10:30:12;;;;;;;8.40;7.07;;;17.30;39.40;;;;;;4962638;28;20209;-83
2023/03/05 10:32:42;;;;;;;8.18;7.13;;;17.40;39.50;;;;;;4962703;28;20197;-83
2023/03/05 10:35:23;;;;;;;9.15;7.15;;;17.40;39.20;;;;;;4963329;28;20202;-83
2023/03/05 10:38:33;;;;;;;8.18;6.78;;;17.40;39.20;;;;;;4962299;28;20218;-83
2023/03/05 10:41:00;;;;;;;9.38;7.00;;;17.40;39.20;;;;;;4960094;28;20213;-83
2023/03/05 10:43:30;;;;;;;8.00;7.05;;;17.40;39.20;;;;;;4962367;28;20262;-83
2023/03/05 10:45:58;;;;;;;9.25;7.35;;;17.50;39.20;;;;;;4962984;28;20241;-83
2023/03/05 10:48:29;;;;;;;9.93;6.95;;;17.50;39.10;;;;;;4945833;28;20284;-83
2023/03/05 10:51:00;;;;;;;8.60;7.05;;;17.50;38.90;;;;;;4962344;28;20201;-83
2023/03/05 10:53:28;;;;;;;8.88;7.63;;;17.60;38.90;;;;;;4961894;28;20680;-83
2023/03/05 10:55:56;;;;;;;8.57;6.60;;;17.60;38.70;;;;;;4946107;28;20195;-83
2023/03/05 10:58:24;;;;;;;7.88;6.60;;;17.60;38.70;;;;;;4961171;28;20581;-83
2023/03/05 11:01:02;;;;;;;9.63;6.70;;;17.60;38.70;;;;;;4961566;28;20727;-83
2023/03/05 11:03:47;;;;;;;9.00;7.30;;;17.70;38.60;;;;;;4960959;28;20226;-83
2023/03/05 11:06:15;;;;;;;7.70;6.63;;;17.70;38.40;;;;;;4961543;28;20321;-83
2023/03/05 11:08:43;;;;;;;8.23;6.65;;;17.70;39.10;;;;;;4960597;28;20206;-83
2023/03/05 11:11:15;;;;;;;9.45;7.15;;;17.70;38.40;;;;;;4960547;28;20676;-83
2023/03/05 11:13:52;;;;;;;7.43;6.57;;;17.80;38.60;;;;;;4961041;28;20219;-83
2023/03/05 11:16:20;;;;;;;7.70;6.60;;;17.80;38.30;;;;;;4961087;28;20232;-83
2023/03/05 11:18:47;;;;;;;7.68;6.80;;;17.80;38.60;;;;;;4961304;28;20277;-83
2023/03/05 11:21:22;;;;;;;7.38;6.65;;;17.80;38.20;;;;;;4960711;28;20206;-83
2023/03/05 11:24:06;;;;;;;9.00;7.10;;;17.80;38.40;;;;;;4960142;28;20204;-83
2023/03/05 11:26:34;;;;;;;8.30;6.55;;;17.70;38.20;;;;;;4960412;28;20218;-83
2023/03/05 11:29:02;;;;;;;8.05;6.93;;;17.70;38.50;;;;;;4960234;28;20202;-83
2023/03/05 11:31:29;;;;;;;8.82;6.85;;;17.70;38.50;;;;;;4960565;28;20214;-83
2023/03/05 11:33:59;;;;;;;8.73;7.70;;;17.70;38.60;;;;;;4960348;28;20237;-83
2023/03/05 11:36:28;;;;;;;8.90;7.40;;;17.70;38.00;;;;;;4960669;28;20222;-83
2023/03/05 11:38:58;;;;;;;7.03;6.22;;;17.60;38.30;;;;;;4960915;28;20671;-83
2023/03/05 11:41:29;;;;;;;7.95;6.18;;;17.60;38.70;;;;;;4960938;28;20595;-83
2023/03/05 11:43:56;;;;;;;8.10;6.47;;;17.60;38.90;;;;;;4960808;28;20191;-83
2023/03/05 11:46:23;;;;;;;9.48;7.47;;;17.50;38.80;;;;;;4960531;28;20707;-83
2023/03/05 11:48:51;;;;;;;7.30;6.30;;;17.50;38.90;;;;;;4944405;28;20216;-83
2023/03/05 11:51:19;;;;;;;9.85;7.32;;;17.50;39.10;;;;;;4960450;28;20253;-83
2023/03/05 11:53:48;;;;;;;9.88;7.35;;;17.50;38.90;;;;;;4960896;28;20561;-83
2023/03/05 11:56:18;;;;;;;6.70;6.00;;;17.50;39.10;;;;;;4962595;28;20312;-83
2023/03/05 11:58:48;;;;;;;9.00;7.10;;;17.50;39.30;;;;;;4945448;28;20679;-83
2023/03/05 12:01:17;;;;;;;8.55;6.57;;;17.40;39.00;;;;;;4960263;28;20202;-84
2023/03/05 12:03:44;;;;;;;7.03;5.95;;;17.40;39.10;;;;;;4960557;28;20285;-84
2023/03/05 12:06:15;;;;;;;8.20;6.53;;;17.40;38.90;;;;;;4959739;28;20591;-83
2023/03/05 12:08:44;;;;;;;7.18;6.18;;;17.40;38.90;;;;;;4959476;28;20190;-83
2023/03/05 12:11:15;;;;;;;8.80;6.80;;;17.40;39.10;;;;;;4959685;28;20197;-83
2023/03/05 12:13:44;;;;;;;8.07;6.70;;;17.50;39.00;;;;;;4959754;28;20198;-83
2023/03/05 12:16:14;;;;;;;8.07;6.35;;;17.50;38.90;;;;;;4959687;28;20218;-83
2023/03/05 12:18:47;;;;;;;7.43;6.63;;;17.50;38.80;;;;;;4960146;28;20191;-83
2023/03/05 12:21:17;;;;;;;7.28;6.53;;;17.50;38.70;;;;;;4959620;28;20194;-82
2023/03/05 12:23:46;;;;;;;9.23;7.15;;;17.50;38.80;;;;;;4962536;28;20213;-82
2023/03/05 12:26:15;;;;;;;8.82;6.63;;;17.50;38.80;;;;;;4959540;28;20221;-82
2023/03/05 12:28:58;;;;;;;6.63;5.93;;;17.50;38.70;;;;;;4958102;28;20218;-83
2023/03/05 12:31:28;;;;;;;7.68;6.25;;;17.50;39.50;;;;;;4959747;28;20294;-83
2023/03/05 12:33:55;;;;;;;7.88;6.43;;;17.50;38.90;;;;;;4966130;28;20190;-83
2023/03/05 12:36:36;;;;;;;6.55;5.82;;;17.50;38.60;;;;;;4947158;28;20233;-83
2023/03/05 12:39:37;;;;;;;8.93;6.78;;;17.50;38.70;;;;;;4963517;28;20209;-83
2023/03/05 12:42:34;;;;;;;8.75;6.75;;;17.50;38.70;;;;;;4966533;28;20701;-83
2023/03/05 12:45:23;;;;;;;7.50;6.05;;;17.60;38.70;;;;;;5001678;23;20264;-82